sensor_id;sensor_type;location;lat;lon;timestamp;P1;durP1;ratioP1;P2;durP2;ratioP2
71610;SDS011;59459;51.172;6.682;2023-08-21T00:00:42;4.87;;;1.70;;
71610;SDS011;59459;51.172;6.682;2023-08-21T00:03:07;6.78;;;1.90;;
71610;SDS011;59459;51.172;6.682;2023-08-21T00:05:32;7.20;;;2.07;;
71610;SDS011;59459;51.172;6.682;2023-08-21T00:07:57;4.77;;;1.67;;
71610;SDS011;59459;51.172;6.682;2023-08-21T00:10:23;4.80;;;1.60;;
71610;SDS011;59459;51.172;6.682;2023-08-21T00:12:48;5.63;;;1.97;;
71610;SDS011;59459;51.172;6.682;2023-08-21T00:15:13;4.33;;;1.80;;
71610;SDS011;59459;51.172;6.682;2023-08-21T00:17:38;3.70;;;1.40;;
71610;SDS011;59459;51.172;6.682;2023-08-21T00:20:04;5.73;;;2.00;;
71610;SDS011;59459;51.172;6.682;2023-08-21T00:22:29;6.27;;;1.70;;
71610;SDS011;59459;51.172;6.682;2023-08-21T00:24:54;4.87;;;1.90;;
71610;SDS011;59459;51.172;6.682;2023-08-21T00:27:19;5.03;;;1.97;;
71610;SDS011;59459;51.172;6.682;2023-08-21T00:29:45;5.50;;;1.60;;
71610;SDS011;59459;51.172;6.682;2023-08-21T00:32:10;5.20;;;2.10;;
71610;SDS011;59459;51.172;6.682;2023-08-21T00:34:37;5.13;;;1.63;;
71610;SDS011;59459;51.172;6.682;2023-08-21T00:37:02;6.97;;;2.13;;
71610;SDS011;59459;51.172;6.682;2023-08-21T00:39:27;8.13;;;2.17;;
71610;SDS011;59459;51.172;6.682;2023-08-21T00:41:53;6.07;;;2.13;;
71610;SDS011;59459;51.172;6.682;2023-08-21T00:44:18;7.33;;;1.70;;
71610;SDS011;59459;51.172;6.682;2023-08-21T00:46:43;4.90;;;2.10;;
71610;SDS011;59459;51.172;6.682;2023-08-21T00:49:08;7.43;;;2.00;;
71610;SDS011;59459;51.172;6.682;2023-08-21T00:51:34;5.15;;;2.03;;
71610;SDS011;59459;51.172;6.682;2023-08-21T00:53:59;5.03;;;1.97;;
71610;SDS011;59459;51.172;6.682;2023-08-21T00:56:25;4.57;;;1.87;;
71610;SDS011;59459;51.172;6.682;2023-08-21T00:58:50;4.67;;;1.87;;
71610;SDS011;59459;51.172;6.682;2023-08-21T01:01:15;4.23;;;1.90;;
71610;SDS011;59459;51.172;6.682;2023-08-21T01:03:42;5.25;;;2.00;;
71610;SDS011;59459;51.172;6.682;2023-08-21T01:06:08;4.30;;;1.90;;
71610;SDS011;59459;51.172;6.682;2023-08-21T01:14:06;5.03;;;2.08;;
71610;SDS011;59459;51.172;6.682;2023-08-21T01:16:33;6.07;;;1.92;;
71610;SDS011;59459;51.172;6.682;2023-08-21T01:18:59;5.80;;;2.30;;
71610;SDS011;59459;51.172;6.682;2023-08-21T01:21:24;7.43;;;2.42;;
71610;SDS011;59459;51.172;6.682;2023-08-21T01:23:50;7.50;;;2.50;;
71610;SDS011;59459;51.172;6.682;2023-08-21T01:26:15;4.77;;;2.40;;
71610;SDS011;59459;51.172;6.682;2023-08-21T01:28:40;6.13;;;2.83;;
71610;SDS011;59459;51.172;6.682;2023-08-21T01:33:44;5.73;;;2.77;;
71610;SDS011;59459;51.172;6.682;2023-08-21T01:36:10;4.82;;;1.92;;
71610;SDS011;59459;51.172;6.682;2023-08-21T01:38:36;4.73;;;2.43;;
71610;SDS011;59459;51.172;6.682;2023-08-21T01:41:02;4.95;;;2.08;;
71610;SDS011;59459;51.172;6.682;2023-08-21T01:43:27;5.23;;;2.23;;
71610;SDS011;59459;51.172;6.682;2023-08-21T01:45:52;4.50;;;2.10;;
71610;SDS011;59459;51.172;6.682;2023-08-21T01:48:18;7.90;;;2.43;;
71610;SDS011;59459;51.172;6.682;2023-08-21T01:50:43;7.87;;;2.50;;
71610;SDS011;59459;51.172;6.682;2023-08-21T01:53:08;5.77;;;2.70;;
71610;SDS011;59459;51.172;6.682;2023-08-21T01:55:33;6.30;;;2.40;;
71610;SDS011;59459;51.172;6.682;2023-08-21T01:57:59;5.67;;;2.37;;
71610;SDS011;59459;51.172;6.682;2023-08-21T02:00:24;4.77;;;2.10;;
71610;SDS011;59459;51.172;6.682;2023-08-21T02:02:49;5.00;;;2.30;;
71610;SDS011;59459;51.172;6.682;2023-08-21T02:05:14;5.60;;;2.13;;
71610;SDS011;59459;51.172;6.682;2023-08-21T02:07:39;6.53;;;1.70;;
71610;SDS011;59459;51.172;6.682;2023-08-21T02:10:05;6.23;;;2.30;;
71610;SDS011;59459;51.172;6.682;2023-08-21T02:12:30;6.97;;;2.27;;
71610;SDS011;59459;51.172;6.682;2023-08-21T02:14:55;4.63;;;2.00;;
71610;SDS011;59459;51.172;6.682;2023-08-21T02:17:21;6.60;;;1.80;;
71610;SDS011;59459;51.172;6.682;2023-08-21T02:19:46;6.60;;;2.13;;
71610;SDS011;59459;51.172;6.682;2023-08-21T02:22:11;5.60;;;2.37;;
71610;SDS011;59459;51.172;6.682;2023-08-21T02:24:36;6.30;;;2.13;;
71610;SDS011;59459;51.172;6.682;2023-08-21T02:27:03;6.80;;;2.35;;
71610;SDS011;59459;51.172;6.682;2023-08-21T02:29:28;6.43;;;2.73;;
71610;SDS011;59459;51.172;6.682;2023-08-21T02:31:53;4.57;;;1.83;;
71610;SDS011;59459;51.172;6.682;2023-08-21T02:34:19;6.43;;;2.50;;
71610;SDS011;59459;51.172;6.682;2023-08-21T02:36:44;6.77;;;2.00;;
71610;SDS011;59459;51.172;6.682;2023-08-21T02:39:09;8.63;;;2.53;;
71610;SDS011;59459;51.172;6.682;2023-08-21T02:41:34;6.87;;;2.33;;
71610;SDS011;59459;51.172;6.682;2023-08-21T02:43:59;5.27;;;2.37;;
71610;SDS011;59459;51.172;6.682;2023-08-21T02:46:24;6.77;;;2.23;;
71610;SDS011;59459;51.172;6.682;2023-08-21T02:48:50;6.20;;;2.03;;
71610;SDS011;59459;51.172;6.682;2023-08-21T02:51:15;6.67;;;1.90;;
71610;SDS011;59459;51.172;6.682;2023-08-21T02:53:40;7.10;;;2.20;;
71610;SDS011;59459;51.172;6.682;2023-08-21T02:56:05;5.90;;;2.57;;
71610;SDS011;59459;51.172;6.682;2023-08-21T02:58:31;7.63;;;2.80;;
71610;SDS011;59459;51.172;6.682;2023-08-21T03:00:56;6.97;;;2.33;;
71610;SDS011;59459;51.172;6.682;2023-08-21T03:03:22;4.97;;;2.10;;
71610;SDS011;59459;51.172;6.682;2023-08-21T03:05:47;6.17;;;2.30;;
71610;SDS011;59459;51.172;6.682;2023-08-21T03:08:12;6.23;;;2.70;;
71610;SDS011;59459;51.172;6.682;2023-08-21T03:10:37;6.47;;;2.07;;
71610;SDS011;59459;51.172;6.682;2023-08-21T03:13:02;6.53;;;2.20;;
71610;SDS011;59459;51.172;6.682;2023-08-21T03:15:28;5.43;;;2.40;;
71610;SDS011;59459;51.172;6.682;2023-08-21T03:17:54;4.15;;;2.35;;
71610;SDS011;59459;51.172;6.682;2023-08-21T03:20:19;5.30;;;1.97;;
71610;SDS011;59459;51.172;6.682;2023-08-21T03:22:44;5.73;;;2.47;;
71610;SDS011;59459;51.172;6.682;2023-08-21T03:25:09;6.20;;;2.63;;
71610;SDS011;59459;51.172;6.682;2023-08-21T03:27:35;7.40;;;2.23;;
71610;SDS011;59459;51.172;6.682;2023-08-21T03:30:04;7.65;;;2.60;;
71610;SDS011;59459;51.172;6.682;2023-08-21T03:32:30;5.07;;;2.67;;
71610;SDS011;59459;51.172;6.682;2023-08-21T03:34:55;6.60;;;2.03;;
71610;SDS011;59459;51.172;6.682;2023-08-21T03:37:21;8.40;;;2.27;;
71610;SDS011;59459;51.172;6.682;2023-08-21T03:39:46;7.60;;;2.47;;
71610;SDS011;59459;51.172;6.682;2023-08-21T03:42:11;7.30;;;2.10;;
71610;SDS011;59459;51.172;6.682;2023-08-21T03:44:37;4.37;;;2.17;;
71610;SDS011;59459;51.172;6.682;2023-08-21T03:47:03;5.85;;;2.03;;
71610;SDS011;59459;51.172;6.682;2023-08-21T03:49:28;6.63;;;2.10;;
71610;SDS011;59459;51.172;6.682;2023-08-21T03:51:53;5.63;;;2.27;;
71610;SDS011;59459;51.172;6.682;2023-08-21T03:54:18;4.20;;;2.27;;
71610;SDS011;59459;51.172;6.682;2023-08-21T03:56:43;5.13;;;2.10;;
71610;SDS011;59459;51.172;6.682;2023-08-21T03:59:09;7.60;;;2.03;;
71610;SDS011;59459;51.172;6.682;2023-08-21T04:01:34;4.97;;;2.53;;
71610;SDS011;59459;51.172;6.682;2023-08-21T04:03:59;6.40;;;2.80;;
71610;SDS011;59459;51.172;6.682;2023-08-21T04:06:24;7.63;;;2.63;;
71610;SDS011;59459;51.172;6.682;2023-08-21T04:08:50;6.18;;;2.35;;
71610;SDS011;59459;51.172;6.682;2023-08-21T04:11:15;6.40;;;2.30;;
71610;SDS011;59459;51.172;6.682;2023-08-21T04:13:41;5.13;;;1.97;;
71610;SDS011;59459;51.172;6.682;2023-08-21T04:16:06;6.83;;;2.70;;
71610;SDS011;59459;51.172;6.682;2023-08-21T04:18:31;5.50;;;2.20;;
71610;SDS011;59459;51.172;6.682;2023-08-21T04:20:56;8.33;;;2.17;;
71610;SDS011;59459;51.172;6.682;2023-08-21T04:23:22;6.23;;;2.20;;
71610;SDS011;59459;51.172;6.682;2023-08-21T04:25:47;9.87;;;2.60;;
71610;SDS011;59459;51.172;6.682;2023-08-21T04:28:12;9.13;;;2.90;;
71610;SDS011;59459;51.172;6.682;2023-08-21T04:30:39;7.78;;;2.28;;
71610;SDS011;59459;51.172;6.682;2023-08-21T04:33:04;6.53;;;2.30;;
71610;SDS011;59459;51.172;6.682;2023-08-21T04:35:30;7.20;;;2.95;;
71610;SDS011;59459;51.172;6.682;2023-08-21T04:38:00;5.28;;;2.45;;
71610;SDS011;59459;51.172;6.682;2023-08-21T04:40:26;10.00;;;2.67;;
71610;SDS011;59459;51.172;6.682;2023-08-21T04:42:51;6.73;;;2.57;;
71610;SDS011;59459;51.172;6.682;2023-08-21T04:45:16;5.63;;;2.37;;
71610;SDS011;59459;51.172;6.682;2023-08-21T04:47:42;7.93;;;2.30;;
71610;SDS011;59459;51.172;6.682;2023-08-21T04:50:07;6.37;;;2.37;;
71610;SDS011;59459;51.172;6.682;2023-08-21T04:52:32;6.67;;;2.87;;
71610;SDS011;59459;51.172;6.682;2023-08-21T04:54:57;8.57;;;2.40;;
71610;SDS011;59459;51.172;6.682;2023-08-21T04:57:23;6.80;;;2.50;;
71610;SDS011;59459;51.172;6.682;2023-08-21T04:59:48;7.83;;;2.53;;
71610;SDS011;59459;51.172;6.682;2023-08-21T05:02:13;7.70;;;2.50;;
71610;SDS011;59459;51.172;6.682;2023-08-21T05:04:38;5.80;;;2.07;;
71610;SDS011;59459;51.172;6.682;2023-08-21T05:07:04;4.88;;;2.20;;
71610;SDS011;59459;51.172;6.682;2023-08-21T05:09:30;5.43;;;2.50;;
71610;SDS011;59459;51.172;6.682;2023-08-21T05:11:55;10.27;;;2.53;;
71610;SDS011;59459;51.172;6.682;2023-08-21T05:14:21;6.47;;;2.87;;
71610;SDS011;59459;51.172;6.682;2023-08-21T05:16:46;8.07;;;2.63;;
71610;SDS011;59459;51.172;6.682;2023-08-21T05:19:11;5.30;;;2.23;;
71610;SDS011;59459;51.172;6.682;2023-08-21T05:21:36;4.87;;;2.33;;
71610;SDS011;59459;51.172;6.682;2023-08-21T05:24:02;5.23;;;2.27;;
71610;SDS011;59459;51.172;6.682;2023-08-21T05:26:27;7.03;;;2.70;;
71610;SDS011;59459;51.172;6.682;2023-08-21T05:28:52;5.00;;;2.13;;
71610;SDS011;59459;51.172;6.682;2023-08-21T05:31:17;7.17;;;2.97;;
71610;SDS011;59459;51.172;6.682;2023-08-21T05:33:43;6.03;;;3.17;;
71610;SDS011;59459;51.172;6.682;2023-08-21T05:36:08;6.73;;;2.67;;
71610;SDS011;59459;51.172;6.682;2023-08-21T05:38:33;7.00;;;2.40;;
71610;SDS011;59459;51.172;6.682;2023-08-21T05:40:58;6.47;;;2.27;;
71610;SDS011;59459;51.172;6.682;2023-08-21T05:43:24;8.63;;;2.90;;
71610;SDS011;59459;51.172;6.682;2023-08-21T05:45:49;5.10;;;2.10;;
71610;SDS011;59459;51.172;6.682;2023-08-21T05:48:15;5.93;;;2.23;;
71610;SDS011;59459;51.172;6.682;2023-08-21T05:50:41;9.23;;;2.70;;
71610;SDS011;59459;51.172;6.682;2023-08-21T05:53:06;7.93;;;2.93;;
71610;SDS011;59459;51.172;6.682;2023-08-21T05:55:32;5.93;;;2.87;;
71610;SDS011;59459;51.172;6.682;2023-08-21T05:57:57;6.47;;;2.30;;
71610;SDS011;59459;51.172;6.682;2023-08-21T06:00:22;8.37;;;2.90;;
71610;SDS011;59459;51.172;6.682;2023-08-21T06:02:48;6.47;;;2.33;;
71610;SDS011;59459;51.172;6.682;2023-08-21T06:05:13;8.83;;;2.40;;
71610;SDS011;59459;51.172;6.682;2023-08-21T06:07:38;5.73;;;2.20;;
71610;SDS011;59459;51.172;6.682;2023-08-21T06:10:06;6.15;;;3.03;;
71610;SDS011;59459;51.172;6.682;2023-08-21T06:12:31;5.88;;;2.83;;
71610;SDS011;59459;51.172;6.682;2023-08-21T06:14:56;7.90;;;3.17;;
71610;SDS011;59459;51.172;6.682;2023-08-21T06:17:21;6.13;;;3.20;;
71610;SDS011;59459;51.172;6.682;2023-08-21T06:19:47;11.77;;;3.00;;
71610;SDS011;59459;51.172;6.682;2023-08-21T06:22:12;8.40;;;2.90;;
71610;SDS011;59459;51.172;6.682;2023-08-21T06:24:37;6.83;;;2.93;;
71610;SDS011;59459;51.172;6.682;2023-08-21T06:27:02;7.17;;;2.87;;
71610;SDS011;59459;51.172;6.682;2023-08-21T06:29:28;6.20;;;2.40;;
71610;SDS011;59459;51.172;6.682;2023-08-21T06:31:53;7.43;;;3.00;;
71610;SDS011;59459;51.172;6.682;2023-08-21T06:34:18;5.90;;;2.13;;
71610;SDS011;59459;51.172;6.682;2023-08-21T06:36:43;9.33;;;2.67;;
71610;SDS011;59459;51.172;6.682;2023-08-21T06:39:09;6.80;;;3.23;;
71610;SDS011;59459;51.172;6.682;2023-08-21T06:41:34;7.77;;;3.47;;
71610;SDS011;59459;51.172;6.682;2023-08-21T06:43:59;8.43;;;3.43;;
71610;SDS011;59459;51.172;6.682;2023-08-21T06:46:24;6.60;;;2.90;;
71610;SDS011;59459;51.172;6.682;2023-08-21T06:48:50;7.90;;;3.80;;
71610;SDS011;59459;51.172;6.682;2023-08-21T06:51:15;5.80;;;3.13;;
71610;SDS011;59459;51.172;6.682;2023-08-21T06:53:40;8.07;;;3.37;;
71610;SDS011;59459;51.172;6.682;2023-08-21T06:56:06;8.93;;;2.70;;
71610;SDS011;59459;51.172;6.682;2023-08-21T06:58:31;8.83;;;2.83;;
71610;SDS011;59459;51.172;6.682;2023-08-21T07:00:57;7.15;;;3.40;;
71610;SDS011;59459;51.172;6.682;2023-08-21T07:03:22;7.97;;;3.40;;
71610;SDS011;59459;51.172;6.682;2023-08-21T07:05:54;9.37;;;3.53;;
71610;SDS011;59459;51.172;6.682;2023-08-21T07:08:23;9.10;;;3.20;;
71610;SDS011;59459;51.172;6.682;2023-08-21T07:10:48;7.80;;;3.17;;
71610;SDS011;59459;51.172;6.682;2023-08-21T07:13:14;7.43;;;3.13;;
71610;SDS011;59459;51.172;6.682;2023-08-21T07:15:39;8.57;;;3.17;;
71610;SDS011;59459;51.172;6.682;2023-08-21T07:18:04;5.90;;;2.60;;
71610;SDS011;59459;51.172;6.682;2023-08-21T07:20:29;8.23;;;3.47;;
71610;SDS011;59459;51.172;6.682;2023-08-21T07:22:54;6.73;;;2.87;;
71610;SDS011;59459;51.172;6.682;2023-08-21T07:25:20;7.50;;;2.80;;
71610;SDS011;59459;51.172;6.682;2023-08-21T07:27:45;7.43;;;3.33;;
71610;SDS011;59459;51.172;6.682;2023-08-21T07:30:10;7.67;;;2.63;;
71610;SDS011;59459;51.172;6.682;2023-08-21T07:32:36;7.97;;;2.90;;
71610;SDS011;59459;51.172;6.682;2023-08-21T07:35:01;7.57;;;3.13;;
71610;SDS011;59459;51.172;6.682;2023-08-21T07:37:26;7.57;;;3.13;;
71610;SDS011;59459;51.172;6.682;2023-08-21T07:39:52;6.77;;;2.80;;
71610;SDS011;59459;51.172;6.682;2023-08-21T07:42:17;8.15;;;3.53;;
71610;SDS011;59459;51.172;6.682;2023-08-21T07:44:43;6.60;;;2.77;;
71610;SDS011;59459;51.172;6.682;2023-08-21T07:47:09;5.53;;;2.55;;
71610;SDS011;59459;51.172;6.682;2023-08-21T07:49:34;8.13;;;2.67;;
71610;SDS011;59459;51.172;6.682;2023-08-21T07:51:59;5.53;;;2.37;;
71610;SDS011;59459;51.172;6.682;2023-08-21T07:54:24;7.00;;;2.77;;
71610;SDS011;59459;51.172;6.682;2023-08-21T07:56:50;6.23;;;2.63;;
71610;SDS011;59459;51.172;6.682;2023-08-21T07:59:15;6.57;;;2.70;;
71610;SDS011;59459;51.172;6.682;2023-08-21T08:01:40;7.00;;;3.05;;
71610;SDS011;59459;51.172;6.682;2023-08-21T08:04:05;6.77;;;2.30;;
71610;SDS011;59459;51.172;6.682;2023-08-21T08:06:31;6.60;;;2.70;;
71610;SDS011;59459;51.172;6.682;2023-08-21T08:08:56;7.00;;;2.70;;
71610;SDS011;59459;51.172;6.682;2023-08-21T08:11:22;6.83;;;2.43;;
71610;SDS011;59459;51.172;6.682;2023-08-21T08:13:47;5.35;;;2.40;;
71610;SDS011;59459;51.172;6.682;2023-08-21T08:16:12;6.70;;;2.70;;
71610;SDS011;59459;51.172;6.682;2023-08-21T08:18:38;5.97;;;2.50;;
71610;SDS011;59459;51.172;6.682;2023-08-21T08:21:03;6.60;;;2.50;;
71610;SDS011;59459;51.172;6.682;2023-08-21T08:23:29;5.17;;;2.37;;
71610;SDS011;59459;51.172;6.682;2023-08-21T08:25:54;9.93;;;3.23;;
71610;SDS011;59459;51.172;6.682;2023-08-21T08:28:19;4.90;;;2.73;;
71610;SDS011;59459;51.172;6.682;2023-08-21T08:30:45;6.00;;;2.50;;
71610;SDS011;59459;51.172;6.682;2023-08-21T08:33:10;6.30;;;2.40;;
71610;SDS011;59459;51.172;6.682;2023-08-21T08:35:35;5.87;;;2.50;;
71610;SDS011;59459;51.172;6.682;2023-08-21T08:38:00;5.50;;;2.27;;
71610;SDS011;59459;51.172;6.682;2023-08-21T08:40:25;7.30;;;2.13;;
71610;SDS011;59459;51.172;6.682;2023-08-21T08:42:51;7.23;;;2.60;;
71610;SDS011;59459;51.172;6.682;2023-08-21T08:45:16;8.53;;;2.87;;
71610;SDS011;59459;51.172;6.682;2023-08-21T08:47:46;4.63;;;2.35;;
71610;SDS011;59459;51.172;6.682;2023-08-21T08:50:12;3.77;;;1.70;;
71610;SDS011;59459;51.172;6.682;2023-08-21T08:52:38;4.07;;;2.08;;
71610;SDS011;59459;51.172;6.682;2023-08-21T08:55:04;6.33;;;2.27;;
71610;SDS011;59459;51.172;6.682;2023-08-21T08:57:30;4.38;;;1.95;;
71610;SDS011;59459;51.172;6.682;2023-08-21T08:59:55;3.53;;;2.07;;
71610;SDS011;59459;51.172;6.682;2023-08-21T09:02:20;7.90;;;3.00;;
71610;SDS011;59459;51.172;6.682;2023-08-21T09:04:45;6.50;;;2.00;;
71610;SDS011;59459;51.172;6.682;2023-08-21T09:07:11;4.20;;;2.30;;
71610;SDS011;59459;51.172;6.682;2023-08-21T09:09:37;4.03;;;2.10;;
71610;SDS011;59459;51.172;6.682;2023-08-21T09:12:09;5.25;;;2.55;;
71610;SDS011;59459;51.172;6.682;2023-08-21T09:14:35;5.80;;;2.70;;
71610;SDS011;59459;51.172;6.682;2023-08-21T09:17:00;5.47;;;2.20;;
71610;SDS011;59459;51.172;6.682;2023-08-21T09:19:28;3.75;;;1.90;;
71610;SDS011;59459;51.172;6.682;2023-08-21T09:21:54;5.90;;;2.37;;
71610;SDS011;59459;51.172;6.682;2023-08-21T09:24:19;4.70;;;2.07;;
71610;SDS011;59459;51.172;6.682;2023-08-21T09:26:44;5.17;;;2.10;;
71610;SDS011;59459;51.172;6.682;2023-08-21T09:29:09;6.13;;;2.43;;
71610;SDS011;59459;51.172;6.682;2023-08-21T09:31:36;4.13;;;2.17;;
71610;SDS011;59459;51.172;6.682;2023-08-21T09:34:02;4.97;;;2.23;;
71610;SDS011;59459;51.172;6.682;2023-08-21T09:36:30;5.38;;;2.58;;
71610;SDS011;59459;51.172;6.682;2023-08-21T09:38:55;5.70;;;2.35;;
71610;SDS011;59459;51.172;6.682;2023-08-21T09:41:21;10.70;;;2.30;;
71610;SDS011;59459;51.172;6.682;2023-08-21T09:43:46;5.63;;;2.53;;
71610;SDS011;59459;51.172;6.682;2023-08-21T09:46:15;6.23;;;2.43;;
71610;SDS011;59459;51.172;6.682;2023-08-21T09:48:45;6.85;;;2.67;;
71610;SDS011;59459;51.172;6.682;2023-08-21T09:51:12;5.68;;;2.22;;
71610;SDS011;59459;51.172;6.682;2023-08-21T09:53:37;8.60;;;2.87;;
71610;SDS011;59459;51.172;6.682;2023-08-21T09:56:04;5.53;;;2.83;;
71610;SDS011;59459;51.172;6.682;2023-08-21T09:58:29;3.70;;;2.40;;
71610;SDS011;59459;51.172;6.682;2023-08-21T10:00:56;5.23;;;2.40;;
71610;SDS011;59459;51.172;6.682;2023-08-21T10:03:22;4.90;;;2.55;;
71610;SDS011;59459;51.172;6.682;2023-08-21T10:05:48;6.87;;;2.83;;
71610;SDS011;59459;51.172;6.682;2023-08-21T10:08:13;7.30;;;2.50;;
71610;SDS011;59459;51.172;6.682;2023-08-21T10:10:40;6.38;;;2.60;;
71610;SDS011;59459;51.172;6.682;2023-08-21T10:13:06;7.37;;;2.80;;
71610;SDS011;59459;51.172;6.682;2023-08-21T10:15:32;4.22;;;2.50;;
71610;SDS011;59459;51.172;6.682;2023-08-21T10:17:58;6.10;;;2.13;;
71610;SDS011;59459;51.172;6.682;2023-08-21T10:20:42;5.40;;;2.50;;
71610;SDS011;59459;51.172;6.682;2023-08-21T10:23:07;5.10;;;2.50;;
71610;SDS011;59459;51.172;6.682;2023-08-21T10:25:32;5.17;;;3.07;;
71610;SDS011;59459;51.172;6.682;2023-08-21T10:28:05;4.93;;;2.47;;
71610;SDS011;59459;51.172;6.682;2023-08-21T10:30:31;4.23;;;2.40;;
71610;SDS011;59459;51.172;6.682;2023-08-21T10:32:57;5.20;;;2.27;;
71610;SDS011;59459;51.172;6.682;2023-08-21T10:35:32;5.27;;;2.37;;
71610;SDS011;59459;51.172;6.682;2023-08-21T10:40:31;5.90;;;2.40;;
71610;SDS011;59459;51.172;6.682;2023-08-21T10:42:58;6.35;;;2.53;;
71610;SDS011;59459;51.172;6.682;2023-08-21T10:45:23;5.10;;;2.30;;
71610;SDS011;59459;51.172;6.682;2023-08-21T10:47:48;5.07;;;2.23;;
71610;SDS011;59459;51.172;6.682;2023-08-21T10:50:15;6.18;;;2.17;;
71610;SDS011;59459;51.172;6.682;2023-08-21T10:52:41;5.57;;;2.17;;
71610;SDS011;59459;51.172;6.682;2023-08-21T10:55:07;5.78;;;2.58;;
71610;SDS011;59459;51.172;6.682;2023-08-21T10:57:36;5.55;;;2.38;;
71610;SDS011;59459;51.172;6.682;2023-08-21T11:00:05;7.67;;;2.87;;
71610;SDS011;59459;51.172;6.682;2023-08-21T11:02:34;5.53;;;2.47;;
71610;SDS011;59459;51.172;6.682;2023-08-21T11:05:00;5.55;;;3.05;;
71610;SDS011;59459;51.172;6.682;2023-08-21T11:07:26;8.73;;;3.50;;
71610;SDS011;59459;51.172;6.682;2023-08-21T11:09:51;6.45;;;2.38;;
71610;SDS011;59459;51.172;6.682;2023-08-21T11:12:20;4.97;;;2.90;;
71610;SDS011;59459;51.172;6.682;2023-08-21T11:14:46;6.35;;;3.55;;
71610;SDS011;59459;51.172;6.682;2023-08-21T11:17:11;5.70;;;2.43;;
71610;SDS011;59459;51.172;6.682;2023-08-21T11:19:37;8.67;;;2.57;;
71610;SDS011;59459;51.172;6.682;2023-08-21T11:22:03;7.63;;;3.53;;
71610;SDS011;59459;51.172;6.682;2023-08-21T11:27:02;5.60;;;3.10;;
71610;SDS011;59459;51.172;6.682;2023-08-21T11:29:31;6.63;;;3.40;;
71610;SDS011;59459;51.172;6.682;2023-08-21T11:31:57;6.85;;;3.00;;
71610;SDS011;59459;51.172;6.682;2023-08-21T11:34:23;9.17;;;3.10;;
71610;SDS011;59459;51.172;6.682;2023-08-21T11:36:48;7.57;;;2.67;;
71610;SDS011;59459;51.172;6.682;2023-08-21T11:39:13;4.87;;;2.07;;
71610;SDS011;59459;51.172;6.682;2023-08-21T11:41:56;5.30;;;2.70;;
71610;SDS011;59459;51.172;6.682;2023-08-21T11:44:23;7.00;;;2.95;;
71610;SDS011;59459;51.172;6.682;2023-08-21T11:46:50;6.20;;;2.80;;
71610;SDS011;59459;51.172;6.682;2023-08-21T11:49:15;7.47;;;2.53;;
71610;SDS011;59459;51.172;6.682;2023-08-21T11:51:41;7.03;;;3.27;;
71610;SDS011;59459;51.172;6.682;2023-08-21T11:54:06;8.70;;;3.43;;
71610;SDS011;59459;51.172;6.682;2023-08-21T11:56:31;6.90;;;2.80;;
71610;SDS011;59459;51.172;6.682;2023-08-21T11:58:56;5.80;;;2.63;;
71610;SDS011;59459;51.172;6.682;2023-08-21T12:01:24;7.10;;;3.38;;
71610;SDS011;59459;51.172;6.682;2023-08-21T12:03:49;6.63;;;3.23;;
71610;SDS011;59459;51.172;6.682;2023-08-21T12:06:19;9.15;;;3.13;;
71610;SDS011;59459;51.172;6.682;2023-08-21T12:08:44;9.13;;;3.53;;
71610;SDS011;59459;51.172;6.682;2023-08-21T12:11:10;7.30;;;3.67;;
71610;SDS011;59459;51.172;6.682;2023-08-21T12:13:36;8.07;;;3.50;;
71610;SDS011;59459;51.172;6.682;2023-08-21T12:16:01;7.77;;;3.43;;
71610;SDS011;59459;51.172;6.682;2023-08-21T12:18:27;7.53;;;3.17;;
71610;SDS011;59459;51.172;6.682;2023-08-21T12:20:52;7.10;;;3.40;;
71610;SDS011;59459;51.172;6.682;2023-08-21T12:23:17;6.70;;;2.87;;
71610;SDS011;59459;51.172;6.682;2023-08-21T12:25:42;6.10;;;3.03;;
71610;SDS011;59459;51.172;6.682;2023-08-21T12:28:08;7.97;;;3.97;;
71610;SDS011;59459;51.172;6.682;2023-08-21T12:30:33;5.83;;;2.70;;
71610;SDS011;59459;51.172;6.682;2023-08-21T12:32:59;6.07;;;2.83;;
71610;SDS011;59459;51.172;6.682;2023-08-21T12:35:24;6.93;;;2.73;;
71610;SDS011;59459;51.172;6.682;2023-08-21T12:37:49;6.83;;;3.23;;
71610;SDS011;59459;51.172;6.682;2023-08-21T12:40:14;5.53;;;3.00;;
71610;SDS011;59459;51.172;6.682;2023-08-21T12:42:40;8.00;;;2.57;;
71610;SDS011;59459;51.172;6.682;2023-08-21T12:45:05;4.87;;;2.43;;
71610;SDS011;59459;51.172;6.682;2023-08-21T12:47:30;4.87;;;2.40;;
71610;SDS011;59459;51.172;6.682;2023-08-21T12:49:57;5.80;;;2.70;;
71610;SDS011;59459;51.172;6.682;2023-08-21T12:52:22;5.30;;;2.30;;
71610;SDS011;59459;51.172;6.682;2023-08-21T12:54:47;8.03;;;2.30;;
71610;SDS011;59459;51.172;6.682;2023-08-21T12:57:12;4.70;;;2.30;;
71610;SDS011;59459;51.172;6.682;2023-08-21T12:59:38;7.65;;;2.67;;
71610;SDS011;59459;51.172;6.682;2023-08-21T13:02:04;5.00;;;2.47;;
71610;SDS011;59459;51.172;6.682;2023-08-21T13:04:29;3.43;;;2.30;;
71610;SDS011;59459;51.172;6.682;2023-08-21T13:06:55;7.50;;;2.92;;
71610;SDS011;59459;51.172;6.682;2023-08-21T13:09:20;4.90;;;2.47;;
71610;SDS011;59459;51.172;6.682;2023-08-21T13:11:45;5.50;;;2.53;;
71610;SDS011;59459;51.172;6.682;2023-08-21T13:14:10;5.23;;;2.43;;
71610;SDS011;59459;51.172;6.682;2023-08-21T13:16:35;4.97;;;2.47;;
71610;SDS011;59459;51.172;6.682;2023-08-21T13:19:01;5.40;;;2.03;;
71610;SDS011;59459;51.172;6.682;2023-08-21T13:21:26;6.37;;;2.53;;
71610;SDS011;59459;51.172;6.682;2023-08-21T13:23:51;3.87;;;2.00;;
71610;SDS011;59459;51.172;6.682;2023-08-21T13:26:17;6.35;;;2.60;;
71610;SDS011;59459;51.172;6.682;2023-08-21T13:28:42;6.93;;;2.07;;
71610;SDS011;59459;51.172;6.682;2023-08-21T13:31:07;5.30;;;2.10;;
71610;SDS011;59459;51.172;6.682;2023-08-21T13:33:54;4.70;;;2.33;;
71610;SDS011;59459;51.172;6.682;2023-08-21T13:36:18;5.38;;;1.90;;
71610;SDS011;59459;51.172;6.682;2023-08-21T13:38:45;5.13;;;2.22;;
71610;SDS011;59459;51.172;6.682;2023-08-21T13:41:11;7.27;;;2.17;;
71610;SDS011;59459;51.172;6.682;2023-08-21T13:43:36;5.37;;;2.07;;
71610;SDS011;59459;51.172;6.682;2023-08-21T13:46:01;6.43;;;2.40;;
71610;SDS011;59459;51.172;6.682;2023-08-21T13:48:29;6.50;;;2.20;;
71610;SDS011;59459;51.172;6.682;2023-08-21T13:53:45;5.32;;;2.33;;
71610;SDS011;59459;51.172;6.682;2023-08-21T13:56:10;4.83;;;2.13;;
71610;SDS011;59459;51.172;6.682;2023-08-21T13:58:35;6.27;;;2.50;;
71610;SDS011;59459;51.172;6.682;2023-08-21T14:01:01;4.37;;;2.10;;
71610;SDS011;59459;51.172;6.682;2023-08-21T14:03:26;4.13;;;1.80;;
71610;SDS011;59459;51.172;6.682;2023-08-21T14:05:51;5.77;;;2.70;;
71610;SDS011;59459;51.172;6.682;2023-08-21T14:08:17;11.10;;;2.80;;
71610;SDS011;59459;51.172;6.682;2023-08-21T14:10:42;4.83;;;2.23;;
71610;SDS011;59459;51.172;6.682;2023-08-21T14:13:08;6.82;;;2.40;;
71610;SDS011;59459;51.172;6.682;2023-08-21T14:15:36;4.07;;;2.20;;
71610;SDS011;59459;51.172;6.682;2023-08-21T14:18:01;5.97;;;2.10;;
71610;SDS011;59459;51.172;6.682;2023-08-21T14:20:27;6.65;;;2.33;;
71610;SDS011;59459;51.172;6.682;2023-08-21T14:22:52;4.23;;;2.20;;
71610;SDS011;59459;51.172;6.682;2023-08-21T14:25:18;4.10;;;2.00;;
71610;SDS011;59459;51.172;6.682;2023-08-21T14:27:43;5.97;;;2.63;;
71610;SDS011;59459;51.172;6.682;2023-08-21T14:30:08;6.40;;;2.00;;
71610;SDS011;59459;51.172;6.682;2023-08-21T14:32:33;4.37;;;1.60;;
71610;SDS011;59459;51.172;6.682;2023-08-21T14:34:59;4.47;;;2.00;;
71610;SDS011;59459;51.172;6.682;2023-08-21T14:37:24;4.83;;;2.17;;
71610;SDS011;59459;51.172;6.682;2023-08-21T14:39:49;6.03;;;1.93;;
71610;SDS011;59459;51.172;6.682;2023-08-21T14:42:15;5.43;;;2.60;;
71610;SDS011;59459;51.172;6.682;2023-08-21T14:44:40;5.13;;;2.25;;
71610;SDS011;59459;51.172;6.682;2023-08-21T14:47:05;5.10;;;2.30;;
71610;SDS011;59459;51.172;6.682;2023-08-21T14:49:31;4.93;;;2.03;;
71610;SDS011;59459;51.172;6.682;2023-08-21T14:51:57;4.97;;;2.22;;
71610;SDS011;59459;51.172;6.682;2023-08-21T14:54:22;4.57;;;1.90;;